Time;durP1;ratioP1;P1;durP2;ratioP2;P2;SDS_P1;SDS_P2;PMS_P1;PMS_P2;Temp;Humidity;BMP_temperature;BMP_pressure;BME280_temperature;BME280_humidity;BME280_pressure;Samples;Min_cycle;Max_cycle;Signal;HPM_P1;HPM_P2
2023/01/02 00:53:34;;;;;;;3.90;1.60;;;16.90;99.90;;;;;;4784325;30;20283;-75
2023/01/02 00:56:02;;;;;;;3.40;1.25;;;16.90;99.90;;;;;;4813218;29;20217;-75
2023/01/02 00:58:28;;;;;;;4.55;1.85;;;16.80;99.90;;;;;;4818776;29;20201;-75
2023/01/02 01:00:53;;;;;;;5.28;1.70;;;16.80;99.90;;;;;;4900930;29;20205;-73
2023/01/02 01:03:22;;;;;;;3.95;1.77;;;16.80;99.90;;;;;;4945520;28;20195;-76
2023/01/02 01:05:47;;;;;;;5.70;1.92;;;16.80;99.90;;;;;;4972982;28;20256;-72
2023/01/02 01:08:16;;;;;;;4.03;1.60;;;16.80;99.90;;;;;;4957469;28;20317;-75
2023/01/02 01:10:41;;;;;;;5.30;2.00;;;16.80;99.90;;;;;;4961878;28;20204;-75
2023/01/02 01:13:07;;;;;;;5.03;2.00;;;16.80;99.90;;;;;;4954793;28;20192;-75
2023/01/02 01:15:33;;;;;;;4.25;1.70;;;16.80;99.90;;;;;;4955556;28;20249;-73
2023/01/02 01:17:59;;;;;;;3.80;1.80;;;16.80;99.90;;;;;;4956999;28;20193;-75
2023/01/02 01:20:24;;;;;;;6.30;1.83;;;16.80;99.90;;;;;;4944789;28;20199;-76
2023/01/02 01:22:52;;;;;;;4.18;1.73;;;16.80;99.90;;;;;;4958031;28;20200;-75
2023/01/02 01:25:20;;;;;;;3.67;1.70;;;16.80;99.90;;;;;;4949570;28;20187;-76
2023/01/02 01:27:46;;;;;;;4.68;1.55;;;16.80;99.90;;;;;;4950553;28;20180;-74
2023/01/02 01:30:12;;;;;;;5.93;1.80;;;16.80;99.90;;;;;;4954996;28;20202;-74
2023/01/02 01:32:37;;;;;;;4.10;1.60;;;16.80;99.90;;;;;;4959825;28;20184;-76
2023/01/02 01:35:06;;;;;;;5.05;1.55;;;16.80;99.90;;;;;;4974523;28;20190;-75
2023/01/02 01:37:33;;;;;;;4.10;1.60;;;16.80;99.90;;;;;;4949270;28;20207;-76
2023/01/02 01:39:59;;;;;;;4.15;1.35;;;16.80;99.90;;;;;;4955667;28;20180;-75
2023/01/02 01:42:35;;;;;;;5.35;1.70;;;16.90;99.90;;;;;;4954121;28;20219;-75
2023/01/02 01:45:01;;;;;;;5.35;1.80;;;16.80;99.90;;;;;;4970111;28;20179;-75
2023/01/02 01:47:46;;;;;;;4.75;1.80;;;16.80;99.90;;;;;;4951764;28;20207;-75
2023/01/02 01:50:20;;;;;;;5.43;1.67;;;16.80;99.90;;;;;;4955896;28;20203;-76
2023/01/02 01:53:15;;;;;;;3.50;1.80;;;16.80;99.90;;;;;;4956845;28;20247;-75
2023/01/02 01:55:49;;;;;;;3.33;1.42;;;16.70;99.90;;;;;;4957745;28;20299;-74
2023/01/02 01:58:21;;;;;;;4.20;1.80;;;16.70;99.90;;;;;;4955591;28;20441;-75
2023/01/02 02:00:50;;;;;;;5.13;1.75;;;16.70;99.90;;;;;;4959800;28;20191;-75
2023/01/02 02:03:20;;;;;;;3.78;1.52;;;16.70;99.90;;;;;;4975922;28;20183;-74
2023/01/02 02:05:47;;;;;;;5.65;1.65;;;16.70;99.90;;;;;;4975842;28;20168;-75
2023/01/02 02:08:50;;;;;;;3.15;1.42;;;16.70;99.90;;;;;;4976063;28;20195;-75
2023/01/02 02:11:16;;;;;;;4.07;1.77;;;16.60;99.90;;;;;;4975862;28;20184;-75
2023/01/02 02:13:42;;;;;;;4.28;1.98;;;16.60;99.90;;;;;;4975888;28;20180;-75
2023/01/02 02:16:16;;;;;;;3.00;1.73;;;16.60;99.90;;;;;;4973623;28;20199;-75
2023/01/02 02:19:02;;;;;;;3.53;1.60;;;16.60;99.90;;;;;;4959739;28;20188;-76
2023/01/02 02:21:44;;;;;;;5.80;1.77;;;16.60;99.90;;;;;;4959085;28;20266;-76
2023/01/02 02:24:19;;;;;;;4.40;1.63;;;16.60;99.90;;;;;;4958427;28;20171;-75
2023/01/02 02:27:18;;;;;;;3.78;1.60;;;16.60;99.90;;;;;;4955862;28;20202;-76
2023/01/02 02:30:02;;;;;;;5.82;1.65;;;16.70;99.90;;;;;;4972387;28;20172;-74
2023/01/02 02:32:38;;;;;;;3.10;1.40;;;16.70;99.90;;;;;;4960242;28;20226;-75
2023/01/02 02:35:22;;;;;;;4.22;1.83;;;16.70;99.90;;;;;;4959616;28;20223;-74
2023/01/02 02:37:50;;;;;;;2.78;1.50;;;16.70;99.90;;;;;;4975819;28;20238;-75
2023/01/02 02:40:40;;;;;;;3.35;1.50;;;16.70;99.90;;;;;;4975417;28;20172;-75
2023/01/02 02:43:15;;;;;;;3.50;1.35;;;16.70;99.90;;;;;;4959635;28;20184;-76
2023/01/02 02:46:02;;;;;;;5.28;2.00;;;16.70;99.90;;;;;;4972709;28;20236;-75
2023/01/02 02:48:53;;;;;;;3.22;1.50;;;16.70;99.90;;;;;;4951589;28;20200;-74
2023/01/02 02:51:44;;;;;;;4.80;1.60;;;16.70;99.90;;;;;;4958036;28;20184;-75
2023/01/02 02:54:23;;;;;;;3.78;1.23;;;16.70;99.90;;;;;;4938557;28;20208;-75
2023/01/02 02:56:53;;;;;;;3.83;1.48;;;16.60;99.90;;;;;;4949255;28;20198;-76
2023/01/02 02:59:22;;;;;;;3.55;1.52;;;16.60;99.90;;;;;;4959304;28;20172;-75
2023/01/02 03:01:48;;;;;;;2.58;1.40;;;16.60;99.90;;;;;;4958964;28;20242;-76
2023/01/02 03:04:21;;;;;;;5.47;1.80;;;16.60;99.90;;;;;;4951485;29;20235;-75
2023/01/02 03:07:18;;;;;;;5.43;1.63;;;16.50;99.90;;;;;;4971995;28;20200;-75
2023/01/02 03:10:17;;;;;;;4.95;1.80;;;16.50;99.90;;;;;;4952939;28;20179;-75
2023/01/02 03:12:51;;;;;;;3.75;1.63;;;16.50;99.90;;;;;;4978526;28;20203;-74
2023/01/02 03:15:25;;;;;;;4.03;1.80;;;16.50;99.90;;;;;;4978488;28;20178;-73
2023/01/02 03:18:14;;;;;;;4.10;1.40;;;16.50;99.90;;;;;;4964924;28;20212;-75
2023/01/02 03:20:43;;;;;;;4.15;1.55;;;16.40;99.90;;;;;;4958934;28;20287;-75
2023/01/02 03:23:24;;;;;;;2.80;1.30;;;16.40;99.90;;;;;;4955593;29;20192;-75
2023/01/02 03:25:51;;;;;;;3.05;1.50;;;16.40;99.90;;;;;;4954350;29;20415;-75
2023/01/02 03:28:20;;;;;;;3.63;1.45;;;16.40;99.90;;;;;;4954284;28;20180;-75
2023/01/02 03:30:53;;;;;;;3.85;1.80;;;16.40;99.90;;;;;;4946233;29;20332;-75
2023/01/02 03:33:34;;;;;;;3.38;1.88;;;16.40;99.90;;;;;;4953348;28;20208;-75
2023/01/02 03:36:07;;;;;;;5.43;1.80;;;16.40;99.90;;;;;;4958980;28;20331;-74
2023/01/02 03:38:38;;;;;;;4.38;1.65;;;16.40;99.90;;;;;;4977783;28;20267;-75
2023/01/02 03:41:32;;;;;;;3.75;1.58;;;16.40;99.90;;;;;;4967655;28;20180;-76
2023/01/02 03:44:00;;;;;;;5.13;1.90;;;16.40;99.90;;;;;;4951407;28;20180;-76
2023/01/02 03:46:50;;;;;;;5.47;1.63;;;16.40;99.90;;;;;;4963568;28;20206;-74
2023/01/02 03:49:38;;;;;;;4.43;1.55;;;16.40;99.90;;;;;;4955479;28;20275;-74
2023/01/02 03:52:06;;;;;;;5.78;1.88;;;16.40;99.90;;;;;;4953029;28;20204;-76
2023/01/02 03:54:32;;;;;;;6.28;1.75;;;16.40;99.90;;;;;;4955079;28;20196;-76
2023/01/02 03:57:31;;;;;;;4.60;1.73;;;16.40;99.90;;;;;;4958924;28;20184;-75
2023/01/02 04:00:13;;;;;;;6.10;1.70;;;16.50;99.90;;;;;;4966424;28;20232;-76
2023/01/02 04:02:47;;;;;;;5.93;2.00;;;16.50;99.90;;;;;;4959401;28;20191;-75
2023/01/02 04:05:33;;;;;;;5.28;1.85;;;16.50;99.90;;;;;;4958714;28;20270;-76
2023/01/02 04:08:04;;;;;;;3.00;1.50;;;16.60;99.90;;;;;;4959472;28;20196;-75
2023/01/02 04:10:34;;;;;;;4.13;1.70;;;16.60;99.90;;;;;;4955259;28;20392;-75
2023/01/02 04:13:08;;;;;;;5.60;1.80;;;16.60;99.90;;;;;;4947906;28;20446;-75
2023/01/02 04:15:36;;;;;;;5.97;1.80;;;16.60;99.90;;;;;;4958072;28;20187;-75
2023/01/02 04:18:09;;;;;;;4.90;1.63;;;16.60;99.90;;;;;;4969218;28;20212;-75
2023/01/02 04:20:44;;;;;;;3.78;1.52;;;16.60;99.90;;;;;;4964373;28;20282;-76
2023/01/02 04:23:14;;;;;;;4.93;1.60;;;16.60;99.90;;;;;;4954848;29;20200;-75
2023/01/02 04:25:55;;;;;;;3.03;1.42;;;16.70;99.90;;;;;;4951481;29;20221;-76
2023/01/02 04:28:29;;;;;;;5.50;1.80;;;16.60;99.90;;;;;;4959212;28;20212;-75
2023/01/02 04:31:05;;;;;;;3.83;1.40;;;16.60;99.90;;;;;;4943380;28;20256;-75
2023/01/02 04:33:40;;;;;;;5.30;1.60;;;16.60;99.90;;;;;;4952099;28;20180;-75
2023/01/02 04:36:13;;;;;;;3.17;1.60;;;16.60;99.90;;;;;;4948408;28;20172;-75
2023/01/02 04:38:41;;;;;;;4.88;1.73;;;16.60;99.90;;;;;;4955410;28;20291;-75
2023/01/02 04:41:13;;;;;;;3.45;1.60;;;16.60;99.90;;;;;;4956881;28;20180;-76
2023/01/02 04:43:44;;;;;;;4.43;1.80;;;16.60;99.90;;;;;;4953511;28;20200;-76
2023/01/02 04:46:09;;;;;;;6.35;1.90;;;16.60;99.90;;;;;;4960525;28;20172;-74
2023/01/02 04:48:35;;;;;;;3.40;1.55;;;16.60;99.90;;;;;;4952919;28;20188;-75
2023/01/02 04:51:00;;;;;;;3.35;1.52;;;16.50;99.90;;;;;;4958350;28;20215;-74
2023/01/02 04:53:26;;;;;;;3.72;1.48;;;16.60;99.90;;;;;;4956262;28;20184;-76
2023/01/02 04:55:56;;;;;;;5.30;1.70;;;16.60;99.90;;;;;;4959156;28;20176;-72
2023/01/02 04:58:27;;;;;;;4.53;1.90;;;16.60;99.90;;;;;;4976970;28;20199;-77
2023/01/02 05:00:53;;;;;;;4.22;1.80;;;16.60;99.90;;;;;;4960851;28;20489;-76
2023/01/02 05:03:23;;;;;;;4.43;1.75;;;16.60;99.90;;;;;;4960167;28;20200;-75
2023/01/02 05:05:57;;;;;;;4.10;1.67;;;16.60;99.90;;;;;;4961096;28;20259;-76
2023/01/02 05:08:23;;;;;;;6.20;1.50;;;16.60;99.90;;;;;;4956926;29;20192;-76
2023/01/02 05:10:48;;;;;;;4.95;1.70;;;16.60;99.90;;;;;;4958749;28;20217;-76
2023/01/02 05:13:16;;;;;;;6.85;2.03;;;16.60;99.90;;;;;;4960897;28;20172;-76
2023/01/02 05:15:42;;;;;;;6.63;1.98;;;16.60;99.90;;;;;;4960790;28;20195;-76
2023/01/02 05:18:07;;;;;;;5.20;1.75;;;16.60;99.90;;;;;;4960645;28;20352;-76
2023/01/02 05:20:38;;;;;;;5.22;1.80;;;16.60;99.90;;;;;;4971039;28;20188;-74
2023/01/02 05:25:50;;;;;;;3.50;1.60;;;16.60;99.90;;;;;;4973333;28;20242;-76
2023/01/02 05:28:16;;;;;;;6.10;1.98;;;16.60;99.90;;;;;;4957654;28;20184;-77
2023/01/02 05:30:41;;;;;;;6.35;1.85;;;16.60;99.90;;;;;;4954760;28;20378;-75
2023/01/02 05:33:09;;;;;;;4.75;1.58;;;16.60;99.90;;;;;;4973761;28;20184;-76
2023/01/02 05:35:43;;;;;;;4.13;1.95;;;16.60;99.90;;;;;;4966917;28;20191;-76
2023/01/02 05:38:08;;;;;;;7.22;1.73;;;16.60;99.90;;;;;;4945930;29;20297;-76
2023/01/02 05:40:34;;;;;;;3.63;1.80;;;16.50;99.90;;;;;;4950492;28;20208;-75
2023/01/02 05:43:02;;;;;;;4.53;1.90;;;16.60;99.90;;;;;;4955271;29;20205;-76
2023/01/02 05:45:30;;;;;;;5.13;1.95;;;16.50;99.90;;;;;;4963528;28;20259;-75
2023/01/02 05:47:57;;;;;;;4.68;1.70;;;16.60;99.90;;;;;;4973330;28;20254;-76
2023/01/02 05:50:28;;;;;;;7.68;1.90;;;16.60;99.90;;;;;;4951763;28;20231;-74
2023/01/02 05:52:55;;;;;;;5.68;2.15;;;16.60;99.90;;;;;;4971006;28;20208;-76
2023/01/02 05:55:20;;;;;;;4.55;1.80;;;16.60;99.90;;;;;;4965245;28;20188;-74
2023/01/02 05:57:53;;;;;;;5.57;1.77;;;16.60;99.90;;;;;;4956583;28;20203;-72
2023/01/02 06:00:24;;;;;;;7.57;1.70;;;16.60;99.90;;;;;;4974408;28;20270;-73
2023/01/02 06:02:49;;;;;;;4.38;1.98;;;16.60;99.90;;;;;;4944560;28;20197;-76
2023/01/02 06:05:15;;;;;;;6.60;1.80;;;16.60;99.90;;;;;;4955997;28;20172;-76
2023/01/02 06:07:43;;;;;;;7.28;2.13;;;16.60;99.90;;;;;;4956215;29;20359;-76
2023/01/02 06:10:13;;;;;;;9.43;2.20;;;16.60;99.90;;;;;;4952942;29;20232;-74
2023/01/02 06:12:39;;;;;;;4.20;2.00;;;16.60;99.90;;;;;;4947218;28;20184;-76
2023/01/02 06:15:05;;;;;;;3.88;1.60;;;16.60;99.90;;;;;;4972439;28;20180;-76
2023/01/02 06:17:35;;;;;;;5.72;1.90;;;16.60;99.90;;;;;;4969698;28;20247;-75
2023/01/02 06:20:00;;;;;;;4.95;1.77;;;16.60;99.90;;;;;;4972297;28;20180;-76
2023/01/02 06:22:26;;;;;;;4.93;1.70;;;16.60;99.90;;;;;;4969967;28;20216;-75
2023/01/02 06:24:51;;;;;;;5.68;1.95;;;16.60;99.90;;;;;;4974723;28;20176;-75
2023/01/02 06:27:18;;;;;;;6.30;1.90;;;16.60;99.90;;;;;;4953150;29;20216;-77
2023/01/02 06:29:46;;;;;;;5.82;1.77;;;16.60;99.90;;;;;;4945690;29;20305;-76
2023/01/02 06:32:12;;;;;;;6.30;1.90;;;16.50;99.90;;;;;;4952915;28;20288;-76
2023/01/02 06:34:39;;;;;;;4.82;1.88;;;16.50;99.90;;;;;;4948809;29;20212;-75
2023/01/02 06:37:07;;;;;;;5.53;1.95;;;16.50;99.90;;;;;;4948896;29;20184;-76
2023/01/02 06:39:36;;;;;;;6.40;2.00;;;16.50;99.90;;;;;;4952762;28;20177;-75
2023/01/02 06:42:02;;;;;;;6.03;2.13;;;16.50;99.90;;;;;;4966952;28;20200;-74
2023/01/02 06:44:30;;;;;;;3.85;1.67;;;16.50;99.90;;;;;;4952846;29;20180;-76
2023/01/02 06:46:55;;;;;;;4.03;1.50;;;16.50;99.90;;;;;;4954267;28;20239;-75
2023/01/02 06:49:21;;;;;;;5.40;1.75;;;16.50;99.90;;;;;;4971767;28;20212;-75
2023/01/02 06:51:51;;;;;;;5.03;1.55;;;16.50;99.90;;;;;;4958087;28;20180;-75
2023/01/02 06:54:19;;;;;;;7.25;1.88;;;16.50;99.90;;;;;;4940371;29;20180;-75
2023/01/02 06:56:44;;;;;;;3.83;1.55;;;16.40;99.90;;;;;;4940254;29;20200;-76
2023/01/02 06:59:12;;;;;;;4.90;1.65;;;16.40;99.90;;;;;;4945779;28;20238;-75
2023/01/02 07:01:38;;;;;;;3.58;1.73;;;16.40;99.90;;;;;;4958663;28;20215;-75
2023/01/02 07:04:04;;;;;;;6.28;1.90;;;16.30;99.90;;;;;;4962797;28;20172;-74
2023/01/02 07:06:35;;;;;;;6.60;1.80;;;16.30;99.90;;;;;;4958164;28;20203;-76
2023/01/02 07:09:03;;;;;;;4.10;1.80;;;16.30;99.90;;;;;;4970227;28;20208;-74
2023/01/02 07:11:31;;;;;;;4.78;1.80;;;16.30;99.90;;;;;;4957205;28;20230;-75
2023/01/02 07:13:57;;;;;;;7.15;2.03;;;16.20;99.90;;;;;;4961504;28;20256;-75
2023/01/02 07:16:24;;;;;;;6.43;1.90;;;16.20;99.90;;;;;;4969634;28;20197;-75
2023/01/02 07:18:55;;;;;;;5.53;2.10;;;16.20;99.90;;;;;;4960521;28;20260;-74
2023/01/02 07:21:21;;;;;;;7.60;2.58;;;16.20;99.90;;;;;;4961697;28;20207;-74
2023/01/02 07:23:49;;;;;;;5.88;1.85;;;16.20;99.90;;;;;;4951670;29;20177;-76
2023/01/02 07:26:16;;;;;;;6.50;1.92;;;16.10;99.90;;;;;;4955386;28;20182;-74
2023/01/02 07:28:44;;;;;;;5.65;2.00;;;16.10;99.90;;;;;;4960391;28;20199;-75
2023/01/02 07:31:17;;;;;;;7.55;2.15;;;16.10;99.90;;;;;;4961104;28;20195;-74
2023/01/02 07:33:45;;;;;;;6.45;1.98;;;16.10;99.90;;;;;;4959813;28;20184;-74
2023/01/02 07:36:17;;;;;;;5.40;1.80;;;16.00;99.90;;;;;;4957731;28;20187;-74
2023/01/02 07:38:46;;;;;;;5.57;1.88;;;16.00;99.90;;;;;;4954196;28;20257;-73
2023/01/02 07:41:19;;;;;;;5.28;1.67;;;16.00;99.90;;;;;;4949892;28;20200;-76
2023/01/02 07:43:45;;;;;;;5.43;2.03;;;16.00;99.90;;;;;;4966678;28;20256;-73
2023/01/02 07:46:16;;;;;;;5.20;1.60;;;16.00;99.90;;;;;;4966251;28;20183;-74
2023/01/02 07:48:42;;;;;;;6.80;1.92;;;15.90;99.90;;;;;;4948076;28;20205;-74
2023/01/02 07:51:09;;;;;;;4.93;1.60;;;16.00;99.90;;;;;;4976661;28;20243;-74
2023/01/02 07:53:35;;;;;;;4.78;1.60;;;16.00;99.90;;;;;;4955145;28;20271;-74
2023/01/02 07:56:01;;;;;;;4.75;1.70;;;16.00;99.90;;;;;;4958714;28;20287;-74
2023/01/02 07:58:27;;;;;;;3.90;1.70;;;15.90;99.90;;;;;;4972076;28;20196;-73
2023/01/02 08:00:57;;;;;;;4.75;1.85;;;15.90;99.90;;;;;;4977783;28;20223;-74
2023/01/02 08:03:25;;;;;;;4.22;1.77;;;15.90;99.90;;;;;;4967901;28;20204;-75
2023/01/02 08:05:51;;;;;;;4.78;1.73;;;15.90;99.90;;;;;;4955139;28;20179;-74
2023/01/02 08:08:16;;;;;;;5.70;2.00;;;15.90;99.90;;;;;;4942698;29;20196;-76
2023/01/02 08:10:42;;;;;;;4.28;1.67;;;15.90;99.90;;;;;;4954651;28;20200;-75
2023/01/02 08:13:07;;;;;;;5.13;1.70;;;15.90;99.90;;;;;;4951309;28;20184;-75
2023/01/02 08:15:36;;;;;;;6.15;1.90;;;15.90;99.90;;;;;;4955778;28;20188;-73
2023/01/02 08:18:01;;;;;;;4.97;2.10;;;15.90;99.90;;;;;;4965941;28;20487;-74
2023/01/02 08:20:27;;;;;;;5.40;1.50;;;16.00;99.90;;;;;;4971973;28;20202;-74
2023/01/02 08:22:57;;;;;;;4.55;1.83;;;15.90;99.90;;;;;;4957836;28;20232;-74
2023/01/02 08:25:25;;;;;;;5.20;1.58;;;16.00;99.90;;;;;;4958876;28;20173;-75
2023/01/02 08:27:50;;;;;;;8.77;1.65;;;15.90;99.90;;;;;;4943678;29;20184;-76
2023/01/02 08:30:16;;;;;;;5.95;1.50;;;16.00;99.90;;;;;;4952110;28;20219;-75
2023/01/02 08:32:42;;;;;;;4.10;1.50;;;15.90;99.90;;;;;;4969824;28;20219;-74
2023/01/02 08:35:08;;;;;;;7.55;1.88;;;16.00;99.90;;;;;;4948369;28;20273;-75
2023/01/02 08:37:33;;;;;;;5.95;1.70;;;15.90;99.90;;;;;;4957101;28;20212;-76
2023/01/02 08:39:59;;;;;;;4.13;1.67;;;16.00;99.90;;;;;;4954262;28;20240;-75
2023/01/02 08:42:25;;;;;;;3.40;1.42;;;15.90;99.90;;;;;;4969808;28;20182;-75
2023/01/02 08:44:52;;;;;;;3.33;1.45;;;16.00;99.90;;;;;;4954857;28;20203;-75
2023/01/02 08:47:20;;;;;;;4.63;1.90;;;15.90;99.90;;;;;;4957441;28;20216;-74
2023/01/02 08:49:48;;;;;;;3.25;1.50;;;15.90;99.90;;;;;;4972887;28;20199;-74
2023/01/02 08:52:18;;;;;;;6.43;1.67;;;15.90;99.90;;;;;;4955313;28;20204;-74
2023/01/02 08:54:46;;;;;;;4.10;1.50;;;15.90;99.90;;;;;;4969356;28;20180;-73
2023/01/02 08:57:12;;;;;;;4.03;1.50;;;15.90;99.90;;;;;;4942060;29;20426;-74
2023/01/02 08:59:37;;;;;;;1.88;1.17;;;15.90;99.90;;;;;;4941684;29;20232;-73
2023/01/02 09:02:05;;;;;;;3.65;1.23;;;15.90;99.90;;;;;;4957139;28;20200;-73
2023/01/02 09:04:31;;;;;;;3.38;1.30;;;15.90;99.90;;;;;;4960543;28;20183;-72
2023/01/02 09:06:56;;;;;;;2.42;1.20;;;15.90;99.90;;;;;;4984842;28;20489;-73
2023/01/02 09:09:24;;;;;;;3.53;1.38;;;15.90;99.90;;;;;;4977519;28;20175;-73
2023/01/02 09:11:51;;;;;;;5.70;1.50;;;15.90;99.90;;;;;;4976374;28;20337;-73
2023/01/02 09:14:21;;;;;;;1.52;1.10;;;15.80;99.90;;;;;;4976772;28;20165;-72
2023/01/02 09:16:50;;;;;;;7.15;1.60;;;15.70;99.90;;;;;;4976431;28;20168;-73
2023/01/02 09:19:16;;;;;;;2.33;1.13;;;15.50;99.90;;;;;;4960426;28;20226;-73
2023/01/02 09:21:44;;;;;;;2.55;1.10;;;15.30;99.90;;;;;;4974971;28;20169;-72
2023/01/02 09:24:10;;;;;;;2.88;1.27;;;15.10;99.90;;;;;;4960297;28;20267;-71
2023/01/02 09:26:41;;;;;;;1.55;0.88;;;14.90;99.90;;;;;;4974529;28;20206;-72
2023/01/02 09:29:10;;;;;;;2.50;1.20;;;14.70;99.90;;;;;;4953729;28;20175;-72
2023/01/02 09:31:39;;;;;;;2.25;1.00;;;14.50;99.90;;;;;;4968328;28;20184;-70
2023/01/02 09:34:07;;;;;;;1.95;0.90;;;14.40;99.90;;;;;;4953484;28;20200;-72
2023/01/02 09:36:35;;;;;;;1.60;0.93;;;14.20;99.90;;;;;;4951256;28;20247;-72
2023/01/02 09:39:01;;;;;;;2.80;0.90;;;14.10;99.90;;;;;;4969980;28;20303;-72
2023/01/02 09:41:32;;;;;;;1.38;0.80;;;14.00;99.90;;;;;;4956770;28;20180;-73
2023/01/02 09:44:00;;;;;;;4.13;0.80;;;14.00;99.90;;;;;;4968027;28;20180;-73
2023/01/02 09:46:38;;;;;;;1.63;0.90;;;13.80;99.90;;;;;;4948790;28;20196;-72
2023/01/02 09:49:11;;;;;;;1.88;1.00;;;13.70;99.90;;;;;;4955344;28;20222;-73
2023/01/02 09:51:37;;;;;;;0.90;0.80;;;13.60;99.90;;;;;;4968112;28;20184;-73
2023/01/02 09:54:05;;;;;;;1.60;0.90;;;13.40;99.90;;;;;;4953751;28;20318;-73
2023/01/02 09:56:36;;;;;;;2.28;0.80;;;13.30;99.90;;;;;;4961943;28;20244;-74
2023/01/02 09:59:17;;;;;;;1.15;0.80;;;13.30;99.90;;;;;;4950205;28;20303;-73
2023/01/02 10:01:55;;;;;;;1.20;0.82;;;13.20;99.90;;;;;;4946724;28;20192;-72
2023/01/02 10:04:39;;;;;;;1.88;0.82;;;13.10;99.90;;;;;;4965933;28;20181;-74
2023/01/02 10:07:16;;;;;;;0.82;0.70;;;13.00;99.90;;;;;;4957601;28;20180;-74
2023/01/02 10:09:48;;;;;;;0.95;0.70;;;13.00;99.90;;;;;;4955312;28;20179;-73
2023/01/02 10:12:24;;;;;;;1.02;0.60;;;13.00;99.90;;;;;;4956149;28;20172;-73
2023/01/02 10:15:00;;;;;;;2.17;0.65;;;12.90;99.90;;;;;;4955894;28;20187;-73
2023/01/02 10:17:31;;;;;;;1.20;0.60;;;12.90;99.90;;;;;;4940146;28;20239;-72
2023/01/02 10:20:05;;;;;;;1.45;0.60;;;12.90;99.90;;;;;;4953760;28;20176;-72
2023/01/02 10:22:49;;;;;;;0.47;0.40;;;13.00;99.90;;;;;;4951604;28;20196;-72
2023/01/02 10:25:21;;;;;;;0.52;0.40;;;13.00;99.90;;;;;;4946187;28;20247;-72
2023/01/02 10:28:01;;;;;;;0.80;0.40;;;13.00;99.90;;;;;;4948750;28;20198;-72
2023/01/02 10:30:34;;;;;;;0.65;0.52;;;13.00;99.90;;;;;;4949425;28;20199;-73
2023/01/02 10:33:11;;;;;;;0.60;0.40;;;13.10;99.90;;;;;;4953345;28;20200;-73
2023/01/02 10:35:55;;;;;;;1.65;0.50;;;13.10;99.90;;;;;;4948101;28;20195;-72
2023/01/02 10:38:21;;;;;;;0.90;0.50;;;13.10;99.90;;;;;;4950025;28;20203;-72
2023/01/02 10:40:49;;;;;;;0.95;0.60;;;13.20;99.90;;;;;;4954825;28;20179;-73
2023/01/02 10:43:16;;;;;;;0.57;0.45;;;13.20;99.90;;;;;;4956593;28;20224;-73
2023/01/02 10:45:44;;;;;;;0.82;0.50;;;13.20;99.90;;;;;;4954240;28;20239;-73
2023/01/02 10:48:10;;;;;;;0.60;0.50;;;13.20;99.90;;;;;;4949999;28;20465;-74
2023/01/02 10:50:43;;;;;;;1.00;0.60;;;13.30;99.90;;;;;;4953452;28;20267;-73
2023/01/02 10:53:31;;;;;;;0.75;0.50;;;13.30;99.90;;;;;;4959200;28;20323;-73
2023/01/02 10:56:19;;;;;;;2.40;0.50;;;13.30;99.90;;;;;;4959160;28;20183;-73
2023/01/02 10:58:53;;;;;;;1.48;0.52;;;13.40;99.90;;;;;;4975327;28;20246;-73
2023/01/02 11:01:23;;;;;;;1.30;0.70;;;13.40;99.90;;;;;;4944525;29;20196;-72
2023/01/02 11:04:10;;;;;;;0.63;0.55;;;13.40;99.90;;;;;;4962546;28;20173;-73
2023/01/02 11:06:51;;;;;;;0.63;0.47;;;13.40;99.90;;;;;;4958025;28;20192;-73
2023/01/02 11:09:26;;;;;;;0.73;0.57;;;13.40;99.90;;;;;;4969164;28;20252;-73
2023/01/02 11:11:54;;;;;;;0.82;0.65;;;13.40;99.90;;;;;;4953333;28;20201;-73
2023/01/02 11:14:23;;;;;;;0.63;0.50;;;13.40;99.90;;;;;;4952798;28;20192;-73
2023/01/02 11:16:49;;;;;;;0.88;0.50;;;13.40;99.90;;;;;;4973851;28;20180;-73
2023/01/02 11:19:19;;;;;;;0.90;0.50;;;13.40;99.90;;;;;;4972317;28;20208;-73
2023/01/02 11:21:45;;;;;;;0.85;0.70;;;13.40;99.90;;;;;;4973761;28;20180;-73
2023/01/02 11:24:15;;;;;;;1.15;0.70;;;13.30;99.90;;;;;;4972716;28;20191;-73
2023/01/02 11:26:45;;;;;;;0.82;0.60;;;13.40;99.90;;;;;;4952491;28;20196;-73
2023/01/02 11:29:16;;;;;;;0.65;0.60;;;13.40;99.90;;;;;;4971767;28;20212;-73
2023/01/02 11:31:45;;;;;;;0.70;0.50;;;13.40;99.90;;;;;;4973021;28;20180;-72
2023/01/02 11:34:23;;;;;;;0.80;0.57;;;13.40;99.90;;;;;;4972455;28;20180;-73
2023/01/02 11:37:03;;;;;;;0.70;0.60;;;13.40;99.90;;;;;;4945225;29;20185;-74
2023/01/02 11:39:31;;;;;;;0.70;0.57;;;13.50;99.90;;;;;;4953378;28;20204;-73
2023/01/02 11:45:12;;;;;;;1.63;0.88;;;13.50;99.90;;;;;;4965805;28;20200;-73
2023/01/02 11:47:46;;;;;;;23.27;12.55;;;13.50;99.90;;;;;;4952977;29;20184;-73
2023/01/02 11:50:28;;;;;;;25.02;15.07;;;13.60;99.90;;;;;;4947691;29;20174;-73
2023/01/02 11:53:07;;;;;;;20.05;11.27;;;13.60;99.90;;;;;;4954540;28;20204;-73
2023/01/02 11:55:52;;;;;;;7.88;5.10;;;13.60;99.90;;;;;;4953105;28;20195;-73
2023/01/02 11:58:29;;;;;;;5.60;3.38;;;13.60;99.90;;;;;;4955048;28;20282;-73
2023/01/02 12:01:24;;;;;;;4.03;2.42;;;13.60;99.90;;;;;;4951282;28;20224;-73
2023/01/02 12:03:55;;;;;;;2.97;1.95;;;13.70;99.90;;;;;;4916587;28;20271;-72
2023/01/02 12:06:33;;;;;;;2.50;1.40;;;13.70;99.90;;;;;;4946645;28;20208;-73
2023/01/02 12:09:10;;;;;;;2.15;1.30;;;13.70;99.90;;;;;;4953743;28;20184;-73
2023/01/02 12:12:06;;;;;;;1.45;1.00;;;13.70;99.90;;;;;;4958822;28;20203;-72
2023/01/02 12:14:49;;;;;;;1.65;1.10;;;13.70;99.90;;;;;;4957189;28;20459;-72
2023/01/02 12:17:52;;;;;;;2.15;1.00;;;13.70;99.90;;;;;;4954817;28;20199;-73
2023/01/02 12:21:02;;;;;;;1.65;1.00;;;13.70;99.90;;;;;;4950609;28;20180;-73
2023/01/02 12:23:46;;;;;;;1.35;1.02;;;13.70;99.90;;;;;;4950345;28;20197;-73
2023/01/02 12:26:19;;;;;;;1.27;0.98;;;13.70;99.90;;;;;;4964046;28;20279;-73
2023/01/02 12:29:09;;;;;;;1.27;0.90;;;13.70;99.90;;;;;;4956498;28;20181;-73
2023/01/02 12:32:13;;;;;;;2.17;1.00;;;13.70;99.90;;;;;;4957167;29;20204;-73
2023/01/02 12:34:48;;;;;;;1.27;0.80;;;13.70;99.90;;;;;;4930035;29;20264;-73
2023/01/02 12:37:20;;;;;;;2.92;0.95;;;13.70;99.90;;;;;;4952901;28;20192;-73
2023/01/02 12:40:08;;;;;;;2.45;1.17;;;13.70;99.90;;;;;;4968882;28;20176;-72
2023/01/02 12:43:11;;;;;;;1.35;0.93;;;13.80;99.90;;;;;;4971450;28;20175;-71
2023/01/02 12:45:45;;;;;;;3.15;1.58;;;13.80;99.90;;;;;;4970789;28;20207;-71
2023/01/02 12:48:38;;;;;;;1.77;1.20;;;13.80;99.90;;;;;;4971234;28;20243;-71
2023/01/02 12:51:25;;;;;;;1.70;1.00;;;13.80;99.90;;;;;;4951339;28;20285;-71
2023/01/02 12:54:27;;;;;;;1.92;1.00;;;13.80;99.90;;;;;;4955483;28;20280;-71
2023/01/02 12:57:11;;;;;;;1.38;0.98;;;13.80;99.90;;;;;;4957777;29;20232;-71
2023/01/02 12:59:48;;;;;;;1.20;0.98;;;13.70;99.90;;;;;;4957369;28;20185;-71
2023/01/02 13:02:50;;;;;;;1.60;1.00;;;13.70;99.90;;;;;;4959836;28;20202;-71
2023/01/02 13:05:19;;;;;;;1.20;0.90;;;13.60;99.90;;;;;;4961752;28;20200;-72
2023/01/02 13:08:01;;;;;;;1.48;0.80;;;13.50;99.90;;;;;;4941768;29;20173;-71
2023/01/02 13:10:29;;;;;;;0.95;0.60;;;13.40;99.90;;;;;;4934355;29;20215;-71
2023/01/02 13:13:02;;;;;;;1.00;0.60;;;13.30;99.90;;;;;;4949027;28;20180;-71
2023/01/02 13:15:35;;;;;;;0.88;0.63;;;13.20;99.90;;;;;;4960950;28;20267;-71
2023/01/02 13:18:10;;;;;;;0.98;0.70;;;13.00;99.90;;;;;;4960262;28;20209;-71
2023/01/02 13:20:48;;;;;;;1.75;0.80;;;12.90;99.90;;;;;;4945983;28;20179;-72
2023/01/02 13:23:26;;;;;;;1.17;0.70;;;12.80;99.90;;;;;;4948636;28;20192;-74
2023/01/02 13:26:06;;;;;;;1.40;0.70;;;12.70;99.90;;;;;;4954834;28;20171;-75
2023/01/02 13:28:41;;;;;;;1.63;0.75;;;12.60;99.90;;;;;;4963050;28;20267;-75
2023/01/02 13:31:10;;;;;;;1.13;0.70;;;12.50;99.90;;;;;;4950319;28;20211;-73
2023/01/02 13:33:41;;;;;;;0.70;0.60;;;12.50;99.90;;;;;;4953747;28;20269;-73
2023/01/02 13:36:33;;;;;;;0.60;0.60;;;12.50;99.90;;;;;;4966004;28;20208;-72
2023/01/02 13:39:03;;;;;;;0.70;0.70;;;12.40;99.90;;;;;;4935141;28;20223;-73
2023/01/02 13:41:30;;;;;;;1.30;1.10;;;12.40;99.90;;;;;;4959104;28;20267;-72
2023/01/02 13:43:59;;;;;;;1.30;0.98;;;12.40;99.90;;;;;;4956420;28;20190;-73
2023/01/02 13:46:38;;;;;;;1.67;0.90;;;12.40;99.90;;;;;;4958025;28;20263;-71
2023/01/02 13:49:10;;;;;;;0.85;0.60;;;12.40;99.90;;;;;;4953466;28;20200;-73
2023/01/02 13:51:38;;;;;;;1.33;1.02;;;12.40;99.90;;;;;;4940955;28;20195;-72
2023/01/02 13:54:15;;;;;;;1.48;0.90;;;12.40;99.90;;;;;;4969930;28;20212;-70
2023/01/02 13:57:24;;;;;;;1.17;1.00;;;12.40;99.90;;;;;;4974112;28;20203;-68
2023/01/02 14:00:04;;;;;;;1.30;0.90;;;12.40;99.90;;;;;;4971212;28;20192;-69
2023/01/02 14:02:32;;;;;;;2.28;1.10;;;12.30;99.90;;;;;;4968836;28;20259;-73
2023/01/02 14:04:58;;;;;;;1.45;1.00;;;12.40;99.90;;;;;;4967879;28;20196;-77
2023/01/02 14:07:26;;;;;;;1.10;0.90;;;12.30;99.90;;;;;;4959636;28;20175;-74
2023/01/02 14:10:40;;;;;;;1.88;1.00;;;12.30;99.90;;;;;;4948036;29;20232;-74
2023/01/02 14:13:09;;;;;;;1.20;0.90;;;12.30;99.90;;;;;;4943229;28;20203;-75